WetterOnline ( https://www.wetteronline.de )

Wetter aktuell Rothaargebirge

Aktuelles Wetter: Kahler Asten (841m)

6-stündlich | Neueste Meldungen
Ortszeit Temperatur Wetter
Mo, 03.10. 8:00 6.5° C leichter Regen
Mo, 03.10. 2:00 6.6° C bewölkt
So, 02.10. 20:00 8.0° C Sprühregen
So, 02.10. 14:00 9.5° C bedeckt
So, 02.10. 8:00 8.6° C leichter Regen
So, 02.10. 2:00 7.4° C Nebel
Sa, 01.10. 20:00 8.3° C wolkig
Sa, 01.10. 14:00 8.2° C leichter Regen
Ortszeit Temperatur Wetter
Mo, 03.10. 9:00 6.5° C leichter Regen
Mo, 03.10. 8:40 6.5° C Sprühregen
Mo, 03.10. 8:30 6.5° C Sprühregen
Mo, 03.10. 8:20 6.5° C Sprühregen
Mo, 03.10. 8:10 6.5° C leichter Regen
Mo, 03.10. 8:00 6.5° C leichter Regen
Mo, 03.10. 7:50 6.5° C leichter Regen
Mo, 03.10. 7:30 6.4° C bewölkt
Mo, 03.10. 7:00 6.5° C Nebel
Mo, 03.10. 6:30 6.5° C Sprühregen
Mo, 03.10. 6:00 6.4° C Sprühregen
Ortszeit Relative Feuchte Sichtweite
Mo, 03.10. 8:00 100% 0.5 km
Mo, 03.10. 2:00 97% 20 km
So, 02.10. 20:00 91% 21 km
So, 02.10. 14:00 98% 16 km
So, 02.10. 8:00 100% 0.6 km
So, 02.10. 2:00 100% 100 m
Sa, 01.10. 20:00 100% 1.8 km
Sa, 01.10. 14:00 100% 0.2 km
Ortszeit Relative Feuchte Sichtweite
Mo, 03.10. 9:00 100% 1.0 km
Mo, 03.10. 8:40 100% -
Mo, 03.10. 8:30 100% 5.0 km
Mo, 03.10. 8:20 100% -
Mo, 03.10. 8:10 100% -
Mo, 03.10. 8:00 100% 0.5 km
Mo, 03.10. 7:50 100% -
Mo, 03.10. 7:30 99% 10 km
Mo, 03.10. 7:00 100% 0.5 km
Mo, 03.10. 6:30 100% 0.4 km
Mo, 03.10. 6:00 99% 7 km
Ortszeit Niederschlagsmenge Niederschlagsart
Mo, 03.10. 8:00 0.3 l/m2 in 12 Std. Regen
Mo, 03.10. 2:00 0.1 l/m2 in 6 Std. Regen
So, 02.10. 20:00 2 l/m2 in 12 Std. Regen
So, 02.10. 14:00 1 l/m2 in 6 Std. Regen
So, 02.10. 8:00 1 l/m2 in 12 Std. Regen
So, 02.10. 2:00 0.1 l/m2 in 6 Std. Sprühregen
Sa, 01.10. 20:00 7 l/m2 in 12 Std. Regen
Sa, 01.10. 14:00 5 l/m2 in 6 Std. Regen
Ortszeit Niederschlagsmenge Niederschlagsart
Mo, 03.10. 9:00 0.3 l/m2 in 1 Std. Regen
Mo, 03.10. 8:40 keine Meldung -
Mo, 03.10. 8:30 0.2 l/m2 in 1 Std. -
Mo, 03.10. 8:20 keine Meldung -
Mo, 03.10. 8:10 keine Meldung -
Mo, 03.10. 8:00 0.1 l/m2 in 1 Std. Regen
Mo, 03.10. 7:50 keine Meldung -
Mo, 03.10. 7:30 0.1 l/m2 in 1 Std. Schneeregen
Mo, 03.10. 7:00 0.2 l/m2 in 1 Std. Regen
Mo, 03.10. 6:30 <0.05 l/m2 in 1 Std. -
Mo, 03.10. 6:00 <0.05 l/m2 in 1 Std. Regen
Ortszeit Stärke Spitze Richtung
km/h Bft. km/h Grad Sektor
Mo, 03.10. 8:00 20 4 37 310° NW
Mo, 03.10. 2:00 26 4 43 310° NW
So, 02.10. 20:00 25 4 47 300° NW
So, 02.10. 14:00 18 3 50 290° W
So, 02.10. 8:00 28 4 54 250° W
So, 02.10. 2:00 31 5 50 260° W
Sa, 01.10. 20:00 25 4 61 270° W
Sa, 01.10. 14:00 31 5 57 250° W
Ortszeit Stärke Spitze Richtung
km/h Bft. km/h Grad Sektor
Mo, 03.10. 9:00 19 3 31 320° NW
Mo, 03.10. 8:40 20 4 - 310° NW
Mo, 03.10. 8:30 18 3 32 330° NW
Mo, 03.10. 8:20 18 3 - 330° NW
Mo, 03.10. 8:10 20 4 - 310° NW
Mo, 03.10. 8:00 20 4 31 310° NW
Mo, 03.10. 7:50 20 4 - 310° NW
Mo, 03.10. 7:30 20 4 30 310° NW
Mo, 03.10. 7:00 18 3 36 310° NW
Mo, 03.10. 6:30 22 4 37 310° NW
Mo, 03.10. 6:00 18 3 36 310° NW
Ortszeit Untergrenze Bedeckung Gattung
total tief tief mittel hoch
Mo, 03.10. 8:00 60 m 7/8 7/8 - - -
Mo, 03.10. 2:00 150 m 7/8 7/8 - - -
So, 02.10. 20:00 420 m 7/8 7/8 - - -
So, 02.10. 14:00 90 m 8/8 8/8 - - -
So, 02.10. 8:00 - 8/8 - - - -
So, 02.10. 2:00 - 8/8 - - - -
Sa, 01.10. 20:00 60 m 6/8 6/8 - - -
Sa, 01.10. 14:00 30 m 7/8 7/8 - - -
Ortszeit Bedeckungsgrad in Achtel und Wolkenuntergrenze
Mo, 03.10. 9:00 7(60m) 7(240m)
Mo, 03.10. 8:40 7
Mo, 03.10. 8:30 7(60m) 7(240m)
Mo, 03.10. 8:20 7(60m) 7(240m)
Mo, 03.10. 8:10 7
Mo, 03.10. 8:00 6(60m) 7(240m) 7(780m)
Mo, 03.10. 7:50 6(60m) 7(240m) 7(780m)
Mo, 03.10. 7:30 6(60m) 6(240m) 7(600m)
Mo, 03.10. 7:00 5(60m) 6(180m)
Mo, 03.10. 6:30 7(60m) 7(240m)
Mo, 03.10. 6:00 7(60m) 7(240m) 8(630m)
Ortszeit Stationsdruck (hPa) Tendenz (hPa in 3 Std.)
Mo, 03.10. 8:00 925 + 0,6
Mo, 03.10. 2:00 924 + 1,1
So, 02.10. 20:00 921 + 1,8
So, 02.10. 14:00 918 + 0,9
So, 02.10. 8:00 916 + 0,1
So, 02.10. 2:00 916 + 1,6
Sa, 01.10. 20:00 912 + 2,6
Sa, 01.10. 14:00 908 + 1,3
Ortszeit Stationsdruck (hPa) Tendenz (hPa in 3 Std.)
Mo, 03.10. 9:00 926 + 0,9
Mo, 03.10. 8:40 926 keine Meldung
Mo, 03.10. 8:30 926 + 0,6
Mo, 03.10. 8:20 926 keine Meldung
Mo, 03.10. 8:10 926 keine Meldung
Mo, 03.10. 8:00 925 + 0,6
Mo, 03.10. 7:50 925 keine Meldung
Mo, 03.10. 7:30 925 + 0,7
Mo, 03.10. 7:00 925 + 0,9
Mo, 03.10. 6:30 925 + 0,8
Mo, 03.10. 6:00 925 + 0,8
Ortszeit Schneehöhe (cm)
Mo, 03.10. 8:00 0
Mo, 03.10. 2:00 0
So, 02.10. 20:00 0
So, 02.10. 14:00 0
So, 02.10. 8:00 0
So, 02.10. 2:00 0
Sa, 01.10. 20:00 0
Sa, 01.10. 14:00 0
Ortszeit Schneehöhe (cm)
Mo, 03.10. 9:00 0
Mo, 03.10. 8:40 0
Mo, 03.10. 8:30 0
Mo, 03.10. 8:20 0
Mo, 03.10. 8:10 0
Mo, 03.10. 8:00 0
Mo, 03.10. 7:50 0
Mo, 03.10. 7:30 0
Mo, 03.10. 7:00 0
Mo, 03.10. 6:30 0
Mo, 03.10. 6:00 0
Link zu dieser Seite / Seite empfehlen

Das Wetter in ...